sensor_id;sensor_type;location;lat;lon;timestamp;pressure;altitude;pressure_sealevel;temperature;humidity
78894;BME280;68282;42.698;23.350;2023-12-20T00:00:20;95885.47;;;3.19;63.89
78894;BME280;68282;42.698;23.350;2023-12-20T00:02:45;95869.53;;;3.17;63.66
78894;BME280;68282;42.698;23.350;2023-12-20T00:05:14;95877.59;;;3.17;63.87
78894;BME280;68282;42.698;23.350;2023-12-20T00:07:39;95872.22;;;3.17;64.04
78894;BME280;68282;42.698;23.350;2023-12-20T00:10:05;95874.72;;;3.19;64.16
78894;BME280;68282;42.698;23.350;2023-12-20T00:12:31;95871.38;;;3.17;63.96
78894;BME280;68282;42.698;23.350;2023-12-20T00:14:57;95876.22;;;3.21;64.08
78894;BME280;68282;42.698;23.350;2023-12-20T00:17:22;95862.84;;;3.13;63.93
78894;BME280;68282;42.698;23.350;2023-12-20T00:19:48;95874.53;;;3.20;63.99
78894;BME280;68282;42.698;23.350;2023-12-20T00:22:14;95861.00;;;3.14;63.65
78894;BME280;68282;42.698;23.350;2023-12-20T00:24:40;95868.53;;;3.18;63.27
78894;BME280;68282;42.698;23.350;2023-12-20T00:27:06;95864.38;;;3.07;64.07
78894;BME280;68282;42.698;23.350;2023-12-20T00:29:31;95848.59;;;3.04;63.85
78894;BME280;68282;42.698;23.350;2023-12-20T00:31:57;95848.75;;;3.11;63.61
78894;BME280;68282;42.698;23.350;2023-12-20T00:34:22;95846.78;;;3.05;63.17
78894;BME280;68282;42.698;23.350;2023-12-20T00:36:48;95847.78;;;3.04;63.76
78894;BME280;68282;42.698;23.350;2023-12-20T00:39:13;95836.09;;;2.97;63.24
78894;BME280;68282;42.698;23.350;2023-12-20T00:41:39;95856.19;;;3.01;63.26
78894;BME280;68282;42.698;23.350;2023-12-20T00:44:04;95835.25;;;2.96;62.96
78894;BME280;68282;42.698;23.350;2023-12-20T00:46:30;95838.25;;;3.01;62.55
78894;BME280;68282;42.698;23.350;2023-12-20T00:48:55;95824.75;;;2.86;62.49
78894;BME280;68282;42.698;23.350;2023-12-20T00:51:21;95829.03;;;2.96;62.60
78894;BME280;68282;42.698;23.350;2023-12-20T00:53:49;95827.03;;;2.98;61.90
78894;BME280;68282;42.698;23.350;2023-12-20T00:56:15;95828.19;;;2.95;62.11
78894;BME280;68282;42.698;23.350;2023-12-20T00:58:41;95828.91;;;2.89;61.69
78894;BME280;68282;42.698;23.350;2023-12-20T01:01:06;95820.25;;;2.78;61.86
78894;BME280;68282;42.698;23.350;2023-12-20T01:03:32;95830.69;;;2.73;62.25
78894;BME280;68282;42.698;23.350;2023-12-20T01:05:57;95812.41;;;2.69;61.96
78894;BME280;68282;42.698;23.350;2023-12-20T01:08:23;95814.22;;;2.76;61.31
78894;BME280;68282;42.698;23.350;2023-12-20T01:10:48;95807.03;;;2.69;61.94
78894;BME280;68282;42.698;23.350;2023-12-20T01:13:14;95811.44;;;2.61;61.89
78894;BME280;68282;42.698;23.350;2023-12-20T01:15:40;95812.13;;;2.63;61.13
78894;BME280;68282;42.698;23.350;2023-12-20T01:18:05;95795.59;;;2.43;61.55
78894;BME280;68282;42.698;23.350;2023-12-20T01:20:31;95800.63;;;2.46;62.03
78894;BME280;68282;42.698;23.350;2023-12-20T01:22:56;95796.41;;;2.52;61.83
78894;BME280;68282;42.698;23.350;2023-12-20T01:25:22;95800.94;;;2.52;61.40
78894;BME280;68282;42.698;23.350;2023-12-20T01:27:48;95782.31;;;2.50;61.16
78894;BME280;68282;42.698;23.350;2023-12-20T01:30:14;95792.03;;;2.51;61.89
78894;BME280;68282;42.698;23.350;2023-12-20T01:32:40;95785.47;;;2.54;61.88
78894;BME280;68282;42.698;23.350;2023-12-20T01:35:06;95784.81;;;2.52;61.77
78894;BME280;68282;42.698;23.350;2023-12-20T01:37:31;95783.13;;;2.51;61.52
78894;BME280;68282;42.698;23.350;2023-12-20T01:39:57;95774.78;;;2.45;61.44
78894;BME280;68282;42.698;23.350;2023-12-20T01:42:23;95770.59;;;2.43;61.39
78894;BME280;68282;42.698;23.350;2023-12-20T01:44:49;95773.13;;;2.44;61.49
78894;BME280;68282;42.698;23.350;2023-12-20T01:47:15;95771.97;;;2.39;61.71
78894;BME280;68282;42.698;23.350;2023-12-20T01:49:40;95755.56;;;2.34;61.71
78894;BME280;68282;42.698;23.350;2023-12-20T01:52:07;95758.22;;;2.34;61.33
78894;BME280;68282;42.698;23.350;2023-12-20T01:54:34;95761.09;;;2.32;62.25
78894;BME280;68282;42.698;23.350;2023-12-20T01:57:01;95754.59;;;2.26;62.07
78894;BME280;68282;42.698;23.350;2023-12-20T01:59:28;95751.97;;;2.18;61.99
78894;BME280;68282;42.698;23.350;2023-12-20T02:01:55;95748.91;;;2.21;62.22
78894;BME280;68282;42.698;23.350;2023-12-20T02:04:20;95739.41;;;2.10;62.51
78894;BME280;68282;42.698;23.350;2023-12-20T02:06:46;95743.72;;;2.20;61.50
78894;BME280;68282;42.698;23.350;2023-12-20T02:09:12;95726.13;;;2.17;60.96
78894;BME280;68282;42.698;23.350;2023-12-20T02:11:37;95713.94;;;2.06;61.49
78894;BME280;68282;42.698;23.350;2023-12-20T02:14:03;95731.31;;;2.19;61.23
78894;BME280;68282;42.698;23.350;2023-12-20T02:16:29;95710.25;;;2.07;61.40
78894;BME280;68282;42.698;23.350;2023-12-20T02:18:54;95732.31;;;2.17;60.66
78894;BME280;68282;42.698;23.350;2023-12-20T02:21:40;95735.84;;;2.18;60.57
78894;BME280;68282;42.698;23.350;2023-12-20T02:24:06;95730.00;;;2.14;61.07
78894;BME280;68282;42.698;23.350;2023-12-20T02:26:32;95731.31;;;2.19;60.98
78894;BME280;68282;42.698;23.350;2023-12-20T02:28:59;95728.81;;;2.17;61.01
78894;BME280;68282;42.698;23.350;2023-12-20T02:31:24;95726.47;;;2.14;61.23
78894;BME280;68282;42.698;23.350;2023-12-20T02:33:50;95720.09;;;2.15;61.15
78894;BME280;68282;42.698;23.350;2023-12-20T02:36:15;95720.28;;;2.13;61.30
78894;BME280;68282;42.698;23.350;2023-12-20T02:38:41;95722.97;;;2.13;61.02
78894;BME280;68282;42.698;23.350;2023-12-20T02:41:06;95700.38;;;1.99;61.67
78894;BME280;68282;42.698;23.350;2023-12-20T02:43:32;95705.34;;;2.11;61.39
78894;BME280;68282;42.698;23.350;2023-12-20T02:45:57;95697.34;;;2.03;61.98
78894;BME280;68282;42.698;23.350;2023-12-20T02:48:23;95707.56;;;2.07;62.20
78894;BME280;68282;42.698;23.350;2023-12-20T02:50:48;95716.41;;;2.16;61.48
78894;BME280;68282;42.698;23.350;2023-12-20T02:53:14;95680.47;;;1.94;61.96
78894;BME280;68282;42.698;23.350;2023-12-20T02:55:40;95706.13;;;1.96;61.97
78894;BME280;68282;42.698;23.350;2023-12-20T02:58:06;95714.16;;;1.96;61.91
78894;BME280;68282;42.698;23.350;2023-12-20T03:00:31;95712.16;;;1.98;62.43
78894;BME280;68282;42.698;23.350;2023-12-20T03:02:57;95696.47;;;1.79;62.72
78894;BME280;68282;42.698;23.350;2023-12-20T03:05:24;95691.09;;;1.79;62.80
78894;BME280;68282;42.698;23.350;2023-12-20T03:07:50;95686.09;;;1.76;63.35
78894;BME280;68282;42.698;23.350;2023-12-20T03:10:15;95685.44;;;1.74;63.15
78894;BME280;68282;42.698;23.350;2023-12-20T03:12:41;95698.47;;;1.77;63.23
78894;BME280;68282;42.698;23.350;2023-12-20T03:15:07;95702.53;;;1.73;64.28
78894;BME280;68282;42.698;23.350;2023-12-20T03:17:32;95706.38;;;1.78;64.27
78894;BME280;68282;42.698;23.350;2023-12-20T03:19:58;95700.81;;;1.80;63.90
78894;BME280;68282;42.698;23.350;2023-12-20T03:22:23;95701.13;;;1.85;64.14
78894;BME280;68282;42.698;23.350;2023-12-20T03:24:49;95699.75;;;1.89;64.49
78894;BME280;68282;42.698;23.350;2023-12-20T03:27:14;95690.03;;;1.88;65.08
78894;BME280;68282;42.698;23.350;2023-12-20T03:29:39;95679.03;;;1.83;64.64
78894;BME280;68282;42.698;23.350;2023-12-20T03:32:05;95688.34;;;1.95;65.23
78894;BME280;68282;42.698;23.350;2023-12-20T03:34:32;95676.53;;;1.81;64.86
78894;BME280;68282;42.698;23.350;2023-12-20T03:36:57;95662.13;;;1.74;64.55
78894;BME280;68282;42.698;23.350;2023-12-20T03:39:23;95672.41;;;1.62;65.14
78894;BME280;68282;42.698;23.350;2023-12-20T03:41:49;95668.25;;;1.60;65.09
78894;BME280;68282;42.698;23.350;2023-12-20T03:44:14;95680.06;;;1.74;64.86
78894;BME280;68282;42.698;23.350;2023-12-20T03:46:41;95669.88;;;1.69;64.88
78894;BME280;68282;42.698;23.350;2023-12-20T03:49:08;95682.75;;;1.74;65.13
78894;BME280;68282;42.698;23.350;2023-12-20T03:51:34;95675.38;;;1.76;64.67
78894;BME280;68282;42.698;23.350;2023-12-20T03:53:59;95685.91;;;1.77;64.71
78894;BME280;68282;42.698;23.350;2023-12-20T03:56:25;95680.03;;;1.82;64.72
78894;BME280;68282;42.698;23.350;2023-12-20T03:58:50;95681.03;;;1.81;64.83
78894;BME280;68282;42.698;23.350;2023-12-20T04:01:16;95679.22;;;1.81;64.93
78894;BME280;68282;42.698;23.350;2023-12-20T04:03:41;95675.66;;;1.81;64.83
78894;BME280;68282;42.698;23.350;2023-12-20T04:06:07;95665.28;;;1.78;64.29
78894;BME280;68282;42.698;23.350;2023-12-20T04:08:32;95660.25;;;1.83;64.55
78894;BME280;68282;42.698;23.350;2023-12-20T04:10:58;95646.56;;;1.69;64.73
78894;BME280;68282;42.698;23.350;2023-12-20T04:13:24;95667.28;;;1.84;64.93
78894;BME280;68282;42.698;23.350;2023-12-20T04:15:49;95652.25;;;1.75;64.46
78894;BME280;68282;42.698;23.350;2023-12-20T04:18:16;95656.22;;;1.79;64.51
78894;BME280;68282;42.698;23.350;2023-12-20T04:20:41;95640.06;;;1.64;64.66
78894;BME280;68282;42.698;23.350;2023-12-20T04:23:07;95649.06;;;1.71;65.09
78894;BME280;68282;42.698;23.350;2023-12-20T04:25:32;95653.59;;;1.70;64.70
78894;BME280;68282;42.698;23.350;2023-12-20T04:27:58;95640.38;;;1.69;64.94
78894;BME280;68282;42.698;23.350;2023-12-20T04:30:23;95637.84;;;1.76;64.50
78894;BME280;68282;42.698;23.350;2023-12-20T04:32:49;95637.84;;;1.67;64.79
78894;BME280;68282;42.698;23.350;2023-12-20T04:35:14;95646.88;;;1.75;64.21
78894;BME280;68282;42.698;23.350;2023-12-20T04:37:40;95634.00;;;1.70;64.17
78894;BME280;68282;42.698;23.350;2023-12-20T04:40:06;95638.66;;;1.76;63.94
78894;BME280;68282;42.698;23.350;2023-12-20T04:42:32;95638.13;;;1.81;63.31
78894;BME280;68282;42.698;23.350;2023-12-20T04:44:58;95642.47;;;1.82;62.97
78894;BME280;68282;42.698;23.350;2023-12-20T04:47:23;95647.66;;;1.83;63.23
78894;BME280;68282;42.698;23.350;2023-12-20T04:49:49;95621.22;;;1.80;62.68
78894;BME280;68282;42.698;23.350;2023-12-20T04:52:14;95616.25;;;1.69;62.78
78894;BME280;68282;42.698;23.350;2023-12-20T04:54:40;95625.72;;;1.80;63.43
78894;BME280;68282;42.698;23.350;2023-12-20T04:57:05;95625.13;;;1.69;62.86
78894;BME280;68282;42.698;23.350;2023-12-20T04:59:31;95641.91;;;1.63;63.13
78894;BME280;68282;42.698;23.350;2023-12-20T05:01:56;95628.03;;;1.51;63.85
78894;BME280;68282;42.698;23.350;2023-12-20T05:04:23;95621.34;;;1.56;63.63
78894;BME280;68282;42.698;23.350;2023-12-20T05:06:48;95607.94;;;1.56;63.80
78894;BME280;68282;42.698;23.350;2023-12-20T05:09:15;95626.69;;;1.56;63.53
78894;BME280;68282;42.698;23.350;2023-12-20T05:11:40;95612.44;;;1.55;63.38
78894;BME280;68282;42.698;23.350;2023-12-20T05:14:06;95615.31;;;1.53;63.71
78894;BME280;68282;42.698;23.350;2023-12-20T05:16:32;95624.84;;;1.56;63.49
78894;BME280;68282;42.698;23.350;2023-12-20T05:18:58;95623.66;;;1.59;63.76
78894;BME280;68282;42.698;23.350;2023-12-20T05:21:26;95621.16;;;1.57;63.54
78894;BME280;68282;42.698;23.350;2023-12-20T05:23:51;95617.81;;;1.55;63.92
78894;BME280;68282;42.698;23.350;2023-12-20T05:26:17;95614.13;;;1.56;63.53
78894;BME280;68282;42.698;23.350;2023-12-20T05:28:42;95606.25;;;1.54;63.78
78894;BME280;68282;42.698;23.350;2023-12-20T05:31:08;95608.53;;;1.66;63.27
78894;BME280;68282;42.698;23.350;2023-12-20T05:33:34;95610.78;;;1.54;63.29
78894;BME280;68282;42.698;23.350;2023-12-20T05:36:00;95594.19;;;1.50;63.51
78894;BME280;68282;42.698;23.350;2023-12-20T05:38:25;95607.41;;;1.60;63.50
78894;BME280;68282;42.698;23.350;2023-12-20T05:40:51;95598.88;;;1.57;63.26
78894;BME280;68282;42.698;23.350;2023-12-20T05:43:16;95588.22;;;1.48;63.44
78894;BME280;68282;42.698;23.350;2023-12-20T05:45:42;95594.72;;;1.54;63.54
78894;BME280;68282;42.698;23.350;2023-12-20T05:48:07;95577.47;;;1.48;63.71
78894;BME280;68282;42.698;23.350;2023-12-20T05:50:33;95597.53;;;1.52;63.20
78894;BME280;68282;42.698;23.350;2023-12-20T05:53:00;95594.34;;;1.57;63.31
78894;BME280;68282;42.698;23.350;2023-12-20T05:55:25;95577.03;;;1.36;63.56
78894;BME280;68282;42.698;23.350;2023-12-20T05:57:51;95600.75;;;1.48;63.82
78894;BME280;68282;42.698;23.350;2023-12-20T06:00:17;95577.69;;;1.38;63.84
78894;BME280;68282;42.698;23.350;2023-12-20T06:02:43;95577.16;;;1.43;64.21
78894;BME280;68282;42.698;23.350;2023-12-20T06:05:08;95588.38;;;1.47;64.21
78894;BME280;68282;42.698;23.350;2023-12-20T06:07:34;95582.47;;;1.51;63.88
78894;BME280;68282;42.698;23.350;2023-12-20T06:09:59;95587.16;;;1.49;64.15
78894;BME280;68282;42.698;23.350;2023-12-20T06:12:25;95591.38;;;1.52;64.17
78894;BME280;68282;42.698;23.350;2023-12-20T06:14:52;95587.53;;;1.46;63.86
78894;BME280;68282;42.698;23.350;2023-12-20T06:17:17;95588.84;;;1.50;64.32
78894;BME280;68282;42.698;23.350;2023-12-20T06:19:44;95588.69;;;1.44;64.38
78894;BME280;68282;42.698;23.350;2023-12-20T06:22:13;95588.88;;;1.42;64.39
78894;BME280;68282;42.698;23.350;2023-12-20T06:24:39;95585.53;;;1.48;64.75
78894;BME280;68282;42.698;23.350;2023-12-20T06:27:04;95591.19;;;1.53;64.27
78894;BME280;68282;42.698;23.350;2023-12-20T06:29:30;95587.16;;;1.49;64.32
78894;BME280;68282;42.698;23.350;2023-12-20T06:31:56;95580.47;;;1.53;64.00
78894;BME280;68282;42.698;23.350;2023-12-20T06:34:21;95585.63;;;1.55;64.61
78894;BME280;68282;42.698;23.350;2023-12-20T06:36:47;95582.31;;;1.53;64.48
78894;BME280;68282;42.698;23.350;2023-12-20T06:39:12;95582.84;;;1.48;64.66
78894;BME280;68282;42.698;23.350;2023-12-20T06:41:39;95581.56;;;1.36;65.20
78894;BME280;68282;42.698;23.350;2023-12-20T06:44:05;95577.50;;;1.40;65.63
78894;BME280;68282;42.698;23.350;2023-12-20T06:46:30;95566.44;;;1.43;65.30
78894;BME280;68282;42.698;23.350;2023-12-20T06:48:56;95558.81;;;1.55;64.71
78894;BME280;68282;42.698;23.350;2023-12-20T06:51:21;95564.69;;;1.59;64.61
78894;BME280;68282;42.698;23.350;2023-12-20T06:53:51;95557.28;;;1.61;64.79
78894;BME280;68282;42.698;23.350;2023-12-20T06:56:17;95552.72;;;1.69;64.23
78894;BME280;68282;42.698;23.350;2023-12-20T06:58:42;95557.66;;;1.81;64.03
78894;BME280;68282;42.698;23.350;2023-12-20T07:01:12;95559.81;;;1.85;64.01
78894;BME280;68282;42.698;23.350;2023-12-20T07:03:38;95542.59;;;1.80;63.92
78894;BME280;68282;42.698;23.350;2023-12-20T07:06:03;95545.59;;;1.85;64.17
78894;BME280;68282;42.698;23.350;2023-12-20T07:08:29;95548.75;;;1.89;64.22
78894;BME280;68282;42.698;23.350;2023-12-20T07:10:54;95549.56;;;1.89;63.63
78894;BME280;68282;42.698;23.350;2023-12-20T07:13:20;95545.31;;;1.95;64.18
78894;BME280;68282;42.698;23.350;2023-12-20T07:15:45;95546.25;;;1.87;64.15
78894;BME280;68282;42.698;23.350;2023-12-20T07:18:11;95533.47;;;1.89;64.06
78894;BME280;68282;42.698;23.350;2023-12-20T07:20:36;95550.16;;;1.99;64.04
78894;BME280;68282;42.698;23.350;2023-12-20T07:23:02;95538.66;;;2.14;63.71
78894;BME280;68282;42.698;23.350;2023-12-20T07:25:28;95531.13;;;2.09;63.66
78894;BME280;68282;42.698;23.350;2023-12-20T07:27:53;95536.63;;;2.16;63.54
78894;BME280;68282;42.698;23.350;2023-12-20T07:30:19;95526.91;;;2.15;63.74
78894;BME280;68282;42.698;23.350;2023-12-20T07:32:44;95531.91;;;2.18;63.40
78894;BME280;68282;42.698;23.350;2023-12-20T07:35:10;95525.22;;;2.14;63.50
78894;BME280;68282;42.698;23.350;2023-12-20T07:37:35;95524.28;;;2.07;63.57
78894;BME280;68282;42.698;23.350;2023-12-20T07:40:01;95527.31;;;2.04;63.91
78894;BME280;68282;42.698;23.350;2023-12-20T07:42:26;95522.28;;;2.09;63.69
78894;BME280;68282;42.698;23.350;2023-12-20T07:44:52;95528.56;;;2.16;64.19
78894;BME280;68282;42.698;23.350;2023-12-20T07:47:17;95530.41;;;2.15;64.35
78894;BME280;68282;42.698;23.350;2023-12-20T07:49:48;95534.59;;;2.18;64.22
78894;BME280;68282;42.698;23.350;2023-12-20T07:52:14;95526.81;;;2.23;64.41
78894;BME280;68282;42.698;23.350;2023-12-20T07:54:40;95526.66;;;2.25;64.50
78894;BME280;68282;42.698;23.350;2023-12-20T07:57:05;95506.75;;;2.19;64.31
78894;BME280;68282;42.698;23.350;2023-12-20T07:59:31;95510.06;;;2.21;64.23
78894;BME280;68282;42.698;23.350;2023-12-20T08:01:56;95512.03;;;2.27;64.22
78894;BME280;68282;42.698;23.350;2023-12-20T08:04:25;95524.91;;;2.32;64.54
78894;BME280;68282;42.698;23.350;2023-12-20T08:06:50;95515.19;;;2.31;64.55
78894;BME280;68282;42.698;23.350;2023-12-20T08:09:16;95513.63;;;2.37;64.40
78894;BME280;68282;42.698;23.350;2023-12-20T08:11:48;95515.75;;;2.41;63.94
78894;BME280;68282;42.698;23.350;2023-12-20T08:14:14;95513.16;;;2.33;64.38
78894;BME280;68282;42.698;23.350;2023-12-20T08:16:39;95498.63;;;2.27;64.67
78894;BME280;68282;42.698;23.350;2023-12-20T08:19:05;95497.06;;;2.33;64.78
78894;BME280;68282;42.698;23.350;2023-12-20T08:21:30;95496.50;;;2.38;64.31
78894;BME280;68282;42.698;23.350;2023-12-20T08:23:56;95501.63;;;2.47;64.80
78894;BME280;68282;42.698;23.350;2023-12-20T08:26:21;95500.97;;;2.45;64.43
78894;BME280;68282;42.698;23.350;2023-12-20T08:28:48;95497.25;;;2.46;64.46
78894;BME280;68282;42.698;23.350;2023-12-20T08:31:15;95501.22;;;2.51;64.58
78894;BME280;68282;42.698;23.350;2023-12-20T08:33:43;95495.13;;;2.57;64.63
78894;BME280;68282;42.698;23.350;2023-12-20T08:36:09;95479.19;;;2.55;65.34
78894;BME280;68282;42.698;23.350;2023-12-20T08:38:35;95481.16;;;2.61;64.99
78894;BME280;68282;42.698;23.350;2023-12-20T08:41:00;95473.66;;;2.72;64.84
78894;BME280;68282;42.698;23.350;2023-12-20T08:43:27;95479.47;;;2.75;65.30
78894;BME280;68282;42.698;23.350;2023-12-20T08:45:52;95475.97;;;2.75;64.67
78894;BME280;68282;42.698;23.350;2023-12-20T08:48:17;95468.63;;;2.84;65.23
78894;BME280;68282;42.698;23.350;2023-12-20T08:50:43;95449.13;;;2.75;65.13
78894;BME280;68282;42.698;23.350;2023-12-20T08:53:08;95462.25;;;2.85;65.41
78894;BME280;68282;42.698;23.350;2023-12-20T08:55:34;95460.41;;;2.85;64.66
78894;BME280;68282;42.698;23.350;2023-12-20T08:57:59;95454.47;;;2.90;64.48
78894;BME280;68282;42.698;23.350;2023-12-20T09:00:25;95464.53;;;3.03;64.04
78894;BME280;68282;42.698;23.350;2023-12-20T09:02:53;95450.66;;;2.99;64.03
78894;BME280;68282;42.698;23.350;2023-12-20T09:05:20;95433.22;;;2.95;64.08
78894;BME280;68282;42.698;23.350;2023-12-20T09:07:45;95437.22;;;2.99;64.77
78894;BME280;68282;42.698;23.350;2023-12-20T09:10:13;95423.59;;;3.01;64.75
78894;BME280;68282;42.698;23.350;2023-12-20T09:12:38;95426.56;;;3.06;65.15
78894;BME280;68282;42.698;23.350;2023-12-20T09:15:06;95394.59;;;2.96;64.95
78894;BME280;68282;42.698;23.350;2023-12-20T09:17:32;95407.53;;;3.07;65.02
78894;BME280;68282;42.698;23.350;2023-12-20T09:19:57;95384.22;;;2.93;65.30
78894;BME280;68282;42.698;23.350;2023-12-20T09:22:25;95389.94;;;3.05;65.58
78894;BME280;68282;42.698;23.350;2023-12-20T09:24:50;95388.16;;;3.12;65.13
78894;BME280;68282;42.698;23.350;2023-12-20T09:27:16;95375.00;;;3.17;65.32
78894;BME280;68282;42.698;23.350;2023-12-20T09:29:42;95358.97;;;3.09;64.96
78894;BME280;68282;42.698;23.350;2023-12-20T09:32:07;95366.66;;;3.12;65.20
78894;BME280;68282;42.698;23.350;2023-12-20T09:34:34;95359.56;;;3.26;64.70
78894;BME280;68282;42.698;23.350;2023-12-20T09:36:59;95360.63;;;3.32;64.52
78894;BME280;68282;42.698;23.350;2023-12-20T09:39:25;95357.72;;;3.27;65.24
78894;BME280;68282;42.698;23.350;2023-12-20T09:42:03;95349.66;;;3.27;65.27
78894;BME280;68282;42.698;23.350;2023-12-20T09:44:30;95337.50;;;3.31;64.66
78894;BME280;68282;42.698;23.350;2023-12-20T09:46:56;95337.94;;;3.34;64.76
78894;BME280;68282;42.698;23.350;2023-12-20T09:49:22;95329.88;;;3.34;64.91
78894;BME280;68282;42.698;23.350;2023-12-20T09:51:50;95334.03;;;3.37;65.21
78894;BME280;68282;42.698;23.350;2023-12-20T09:54:17;95323.41;;;3.29;65.09
78894;BME280;68282;42.698;23.350;2023-12-20T09:56:44;95321.22;;;3.39;65.14
78894;BME280;68282;42.698;23.350;2023-12-20T09:59:10;95321.59;;;3.36;65.98
78894;BME280;68282;42.698;23.350;2023-12-20T10:01:38;95324.88;;;3.31;65.99
78894;BME280;68282;42.698;23.350;2023-12-20T10:04:06;95336.06;;;3.35;65.63
78894;BME280;68282;42.698;23.350;2023-12-20T10:06:52;95312.56;;;3.44;66.36
78894;BME280;68282;42.698;23.350;2023-12-20T10:09:18;95310.28;;;3.40;66.05
78894;BME280;68282;42.698;23.350;2023-12-20T10:11:43;95301.81;;;3.44;66.03
78894;BME280;68282;42.698;23.350;2023-12-20T10:14:10;95304.75;;;3.49;66.49
78894;BME280;68282;42.698;23.350;2023-12-20T10:16:36;95291.34;;;3.55;66.11
78894;BME280;68282;42.698;23.350;2023-12-20T10:19:01;95285.59;;;3.59;65.67
78894;BME280;68282;42.698;23.350;2023-12-20T10:21:27;95282.41;;;3.48;65.49
78894;BME280;68282;42.698;23.350;2023-12-20T10:23:57;95278.94;;;3.54;64.94
78894;BME280;68282;42.698;23.350;2023-12-20T10:26:26;95284.63;;;3.66;65.69
78894;BME280;68282;42.698;23.350;2023-12-20T10:29:10;95276.53;;;3.66;65.36
78894;BME280;68282;42.698;23.350;2023-12-20T10:31:36;95273.06;;;3.72;65.33
78894;BME280;68282;42.698;23.350;2023-12-20T10:34:04;95261.31;;;3.80;65.02
78894;BME280;68282;42.698;23.350;2023-12-20T10:36:31;95248.91;;;3.79;65.07
78894;BME280;68282;42.698;23.350;2023-12-20T10:38:58;95252.06;;;3.90;65.25
78894;BME280;68282;42.698;23.350;2023-12-20T10:41:29;95265.31;;;3.91;65.11
78894;BME280;68282;42.698;23.350;2023-12-20T10:43:58;95258.66;;;3.87;65.30
78894;BME280;68282;42.698;23.350;2023-12-20T10:46:24;95244.44;;;4.00;64.96
78894;BME280;68282;42.698;23.350;2023-12-20T10:48:53;95230.97;;;3.93;64.66
78894;BME280;68282;42.698;23.350;2023-12-20T10:51:20;95226.03;;;4.03;65.35
78894;BME280;68282;42.698;23.350;2023-12-20T10:53:47;95226.50;;;4.14;65.35
78894;BME280;68282;42.698;23.350;2023-12-20T10:56:16;95220.94;;;4.15;64.73
78894;BME280;68282;42.698;23.350;2023-12-20T10:58:45;95219.91;;;4.16;64.83
78894;BME280;68282;42.698;23.350;2023-12-20T11:01:13;95210.97;;;4.16;64.82
78894;BME280;68282;42.698;23.350;2023-12-20T11:04:02;95201.09;;;4.30;64.90
78894;BME280;68282;42.698;23.350;2023-12-20T11:09:11;95194.06;;;4.29;64.96
78894;BME280;68282;42.698;23.350;2023-12-20T11:14:22;95179.53;;;4.23;64.93
78894;BME280;68282;42.698;23.350;2023-12-20T11:16:49;95185.34;;;4.27;64.76
78894;BME280;68282;42.698;23.350;2023-12-20T11:19:16;95189.91;;;4.33;64.83
78894;BME280;68282;42.698;23.350;2023-12-20T11:21:42;95172.09;;;4.32;64.89
78894;BME280;68282;42.698;23.350;2023-12-20T11:24:07;95163.41;;;4.43;64.26
78894;BME280;68282;42.698;23.350;2023-12-20T11:26:34;95165.31;;;4.56;64.50
78894;BME280;68282;42.698;23.350;2023-12-20T11:29:34;95154.13;;;4.59;64.74
78894;BME280;68282;42.698;23.350;2023-12-20T11:32:04;95142.94;;;4.49;64.94
78894;BME280;68282;42.698;23.350;2023-12-20T11:35:00;95138.19;;;4.58;64.32
78894;BME280;68282;42.698;23.350;2023-12-20T11:37:30;95135.69;;;4.70;64.23
78894;BME280;68282;42.698;23.350;2023-12-20T11:40:06;95118.09;;;4.87;64.09
78894;BME280;68282;42.698;23.350;2023-12-20T11:42:50;95120.97;;;4.92;63.87
78894;BME280;68282;42.698;23.350;2023-12-20T11:45:20;95105.88;;;4.85;63.26
78894;BME280;68282;42.698;23.350;2023-12-20T11:47:50;95115.63;;;4.79;63.86
78894;BME280;68282;42.698;23.350;2023-12-20T11:50:17;95106.28;;;4.75;63.79
78894;BME280;68282;42.698;23.350;2023-12-20T11:52:43;95093.63;;;4.75;64.17
78894;BME280;68282;42.698;23.350;2023-12-20T11:55:09;95099.00;;;4.75;64.02
78894;BME280;68282;42.698;23.350;2023-12-20T11:57:35;95092.81;;;4.68;63.69
78894;BME280;68282;42.698;23.350;2023-12-20T12:00:02;95094.25;;;4.57;64.50
78894;BME280;68282;42.698;23.350;2023-12-20T12:02:28;95070.63;;;4.53;64.80
78894;BME280;68282;42.698;23.350;2023-12-20T12:04:53;95074.38;;;4.52;64.87
78894;BME280;68282;42.698;23.350;2023-12-20T12:07:20;95058.22;;;4.45;65.03
78894;BME280;68282;42.698;23.350;2023-12-20T12:09:45;95069.78;;;4.39;65.35
78894;BME280;68282;42.698;23.350;2023-12-20T12:12:12;95058.41;;;4.43;65.35
78894;BME280;68282;42.698;23.350;2023-12-20T12:14:38;95056.53;;;4.30;65.39
78894;BME280;68282;42.698;23.350;2023-12-20T12:17:10;95059.00;;;4.32;65.99
78894;BME280;68282;42.698;23.350;2023-12-20T12:19:36;95051.38;;;4.29;66.10
78894;BME280;68282;42.698;23.350;2023-12-20T12:22:09;95045.16;;;4.35;65.66
78894;BME280;68282;42.698;23.350;2023-12-20T12:24:38;95046.41;;;4.39;65.95
78894;BME280;68282;42.698;23.350;2023-12-20T12:27:06;95039.34;;;4.38;66.11
78894;BME280;68282;42.698;23.350;2023-12-20T12:29:32;95044.94;;;4.43;66.12
78894;BME280;68282;42.698;23.350;2023-12-20T12:31:57;95036.88;;;4.30;66.40
78894;BME280;68282;42.698;23.350;2023-12-20T12:34:23;95039.75;;;4.35;66.84
78894;BME280;68282;42.698;23.350;2023-12-20T12:36:49;95041.03;;;4.39;66.37
78894;BME280;68282;42.698;23.350;2023-12-20T12:39:15;95051.97;;;4.44;66.23
78894;BME280;68282;42.698;23.350;2023-12-20T12:41:41;95049.28;;;4.44;66.54
78894;BME280;68282;42.698;23.350;2023-12-20T12:44:09;95037.09;;;4.55;65.92
78894;BME280;68282;42.698;23.350;2023-12-20T12:46:36;95037.50;;;4.59;65.58
78894;BME280;68282;42.698;23.350;2023-12-20T12:49:01;95029.59;;;4.71;65.14
78894;BME280;68282;42.698;23.350;2023-12-20T12:51:27;95019.25;;;4.61;65.52
78894;BME280;68282;42.698;23.350;2023-12-20T12:53:53;95028.56;;;4.58;65.58
78894;BME280;68282;42.698;23.350;2023-12-20T12:56:19;95034.16;;;4.57;66.33
78894;BME280;68282;42.698;23.350;2023-12-20T12:58:44;95028.38;;;4.53;66.26
78894;BME280;68282;42.698;23.350;2023-12-20T13:01:11;95026.50;;;4.47;65.82